createdAt,value
2023-01-02T00:01:25.876Z,1.05
2023-01-02T00:03:55.721Z,1.08
2023-01-02T00:06:23.067Z,1.33
2023-01-02T00:08:50.557Z,1.23
2023-01-02T00:11:17.226Z,1.20
2023-01-02T00:13:43.887Z,1.08
2023-01-02T00:16:10.600Z,0.93
2023-01-02T00:18:37.376Z,1.02
2023-01-02T00:21:05.038Z,1.38
2023-01-02T00:23:32.320Z,1.25
2023-01-02T00:25:59.354Z,0.95
2023-01-02T00:28:26.314Z,1.10
2023-01-02T00:30:53.230Z,1.50
2023-01-02T00:33:19.997Z,1.83
2023-01-02T00:35:46.721Z,1.67
2023-01-02T00:38:13.487Z,1.33
2023-01-02T00:40:40.366Z,1.00
2023-01-02T00:43:07.068Z,1.40
2023-01-02T00:45:33.719Z,1.30
2023-01-02T00:48:00.378Z,1.40
2023-01-02T00:50:26.989Z,1.70
2023-01-02T00:52:53.672Z,1.42
2023-01-02T00:55:20.298Z,1.80
2023-01-02T00:57:46.963Z,1.63
2023-01-02T01:00:19.957Z,1.92
2023-01-02T01:02:50.362Z,1.75
2023-01-02T01:05:17.166Z,1.95
2023-01-02T01:07:43.861Z,1.52
2023-01-02T01:10:10.550Z,2.10
2023-01-02T01:12:37.233Z,1.88
2023-01-02T01:15:05.021Z,1.73
2023-01-02T01:17:32.487Z,1.85
2023-01-02T01:19:59.228Z,1.35
2023-01-02T01:22:25.886Z,1.88
2023-01-02T01:24:52.561Z,1.70
2023-01-02T01:27:19.233Z,1.70
2023-01-02T01:29:45.853Z,1.70
2023-01-02T01:32:12.539Z,1.77
2023-01-02T01:34:39.163Z,1.42
2023-01-02T01:37:05.851Z,2.20
2023-01-02T01:39:32.463Z,1.80
2023-01-02T01:42:00.413Z,2.08
2023-01-02T01:44:50.975Z,2.05
2023-01-02T01:47:27.178Z,1.40
2023-01-02T01:50:19.179Z,1.80
2023-01-02T01:53:00.355Z,1.52
2023-01-02T01:55:43.873Z,2.17
2023-01-02T01:58:16.311Z,1.75
2023-01-02T02:00:43.096Z,1.75
2023-01-02T02:03:12.860Z,1.30
2023-01-02T02:05:39.591Z,1.50
2023-01-02T02:08:18.405Z,1.92
2023-01-02T02:10:45.114Z,1.52
2023-01-02T02:13:11.780Z,2.40
2023-01-02T02:16:06.526Z,1.90
2023-01-02T02:18:39.159Z,1.90
2023-01-02T02:21:24.701Z,1.92
2023-01-02T02:24:14.552Z,1.90
2023-01-02T02:26:52.070Z,2.08
2023-01-02T02:29:43.450Z,2.13
2023-01-02T02:32:21.293Z,2.00
2023-01-02T02:35:26.489Z,2.45
2023-01-02T02:38:13.434Z,2.25
2023-01-02T02:40:59.375Z,2.65
2023-01-02T02:43:55.272Z,3.05
2023-01-02T02:46:34.692Z,2.25
2023-01-02T02:49:23.290Z,2.20
2023-01-02T02:52:07.121Z,2.13
2023-01-02T02:54:53.814Z,1.83
2023-01-02T02:57:20.616Z,2.00
2023-01-02T02:59:47.335Z,2.08
2023-01-02T03:02:16.453Z,1.80
2023-01-02T03:04:45.926Z,1.88
2023-01-02T03:07:46.583Z,1.83
2023-01-02T03:10:31.356Z,1.90
2023-01-02T03:13:07.080Z,2.10
2023-01-02T03:16:11.492Z,2.28
2023-01-02T03:18:46.767Z,2.83
2023-01-02T03:21:25.332Z,1.98
2023-01-02T03:23:54.718Z,1.50
2023-01-02T03:26:23.207Z,1.65
2023-01-02T03:28:53.414Z,2.30
2023-01-02T03:31:20.330Z,1.95
2023-01-02T03:33:51.305Z,2.20
2023-01-02T03:36:21.544Z,1.83
2023-01-02T03:38:55.429Z,2.00
2023-01-02T03:41:28.105Z,1.65
2023-01-02T03:43:57.324Z,2.03
2023-01-02T03:46:48.021Z,1.63
2023-01-02T03:49:22.020Z,2.10
2023-01-02T03:51:48.788Z,1.73
2023-01-02T03:54:15.955Z,1.67
2023-01-02T03:56:54.365Z,1.58
2023-01-02T03:59:42.842Z,1.40
2023-01-02T04:02:19.175Z,1.75
2023-01-02T04:04:55.781Z,1.50
2023-01-02T04:07:54.669Z,1.00
2023-01-02T04:10:21.377Z,1.65
2023-01-02T04:12:49.912Z,1.50
2023-01-02T04:15:17.587Z,1.30
2023-01-02T04:17:48.780Z,1.63
2023-01-02T04:20:24.270Z,1.92
2023-01-02T04:22:55.564Z,1.20
2023-01-02T04:25:22.205Z,1.65
2023-01-02T04:28:03.394Z,1.40
2023-01-02T04:30:30.327Z,1.83
2023-01-02T04:33:00.069Z,1.02
2023-01-02T04:35:26.809Z,1.10
2023-01-02T04:37:53.517Z,1.33
2023-01-02T04:40:27.356Z,1.42
2023-01-02T04:42:54.042Z,1.15
2023-01-02T04:45:21.094Z,1.45
2023-01-02T04:47:48.797Z,1.20
2023-01-02T04:50:15.864Z,1.60
2023-01-02T04:52:42.733Z,1.17
2023-01-02T04:55:09.924Z,1.20
2023-01-02T04:57:39.660Z,2.45
2023-01-02T05:00:07.348Z,1.58
2023-01-02T05:02:38.697Z,1.13
2023-01-02T05:05:06.596Z,1.42
2023-01-02T05:07:34.194Z,1.20
2023-01-02T05:10:00.909Z,1.20
2023-01-02T05:12:27.666Z,1.25
2023-01-02T05:14:54.345Z,1.40
2023-01-02T05:17:21.048Z,1.40
2023-01-02T05:19:47.771Z,1.05
2023-01-02T05:22:32.973Z,1.63
2023-01-02T05:24:59.637Z,1.02
2023-01-02T05:27:26.337Z,1.70
2023-01-02T05:29:53.002Z,1.10
2023-01-02T05:32:19.684Z,1.00
2023-01-02T05:34:46.372Z,1.05
2023-01-02T05:37:13.036Z,1.30
2023-01-02T05:39:41.113Z,1.05
2023-01-02T05:42:07.978Z,1.02
2023-01-02T05:44:34.655Z,1.42
2023-01-02T05:47:01.349Z,1.17
2023-01-02T05:49:28.072Z,1.35
2023-01-02T05:51:54.860Z,1.25
2023-01-02T05:54:22.306Z,1.00
2023-01-02T05:56:49.029Z,1.65
2023-01-02T05:59:16.415Z,1.58
2023-01-02T06:01:43.826Z,1.02
2023-01-02T06:04:14.658Z,1.10
2023-01-02T06:06:44.619Z,1.35
2023-01-02T06:09:15.349Z,1.17
2023-01-02T06:11:42.234Z,1.00
2023-01-02T06:14:10.702Z,1.08
2023-01-02T06:16:38.535Z,1.15
2023-01-02T06:19:05.963Z,1.92
2023-01-02T06:21:32.650Z,1.17
2023-01-02T06:23:59.748Z,1.52
2023-01-02T06:26:32.748Z,1.30
2023-01-02T06:29:01.831Z,1.20
2023-01-02T06:31:29.755Z,1.00
2023-01-02T06:34:00.977Z,1.00
2023-01-02T06:36:30.827Z,1.48
2023-01-02T06:38:57.799Z,1.10
2023-01-02T06:41:24.704Z,1.27
2023-01-02T06:43:51.739Z,1.02
2023-01-02T06:46:20.602Z,0.90
2023-01-02T06:48:47.662Z,1.33
2023-01-02T06:51:16.362Z,1.08
2023-01-02T06:53:44.167Z,1.42
2023-01-02T06:56:11.526Z,1.20
2023-01-02T06:58:39.003Z,1.17
2023-01-02T07:01:11.156Z,1.05
2023-01-02T07:03:38.271Z,1.20
2023-01-02T07:06:16.093Z,1.58
2023-01-02T07:08:43.509Z,1.40
2023-01-02T07:11:12.776Z,0.93
2023-01-02T07:13:40.288Z,1.30
2023-01-02T07:16:09.163Z,1.40
2023-01-02T07:18:36.417Z,1.25
2023-01-02T07:21:03.772Z,1.40
2023-01-02T07:23:30.681Z,1.23
2023-01-02T07:25:59.727Z,1.40
2023-01-02T07:28:27.639Z,1.33
2023-01-02T07:30:58.864Z,1.25
2023-01-02T07:33:26.062Z,1.33
2023-01-02T07:35:52.869Z,1.30
2023-01-02T07:38:19.595Z,1.50
2023-01-02T07:40:46.261Z,1.40
2023-01-02T07:43:13.005Z,1.25
2023-01-02T07:45:42.539Z,1.83
2023-01-02T07:48:13.197Z,2.20
2023-01-02T07:50:39.931Z,3.95
2023-01-02T07:53:06.727Z,2.28
2023-01-02T07:55:33.586Z,1.42
2023-01-02T07:58:00.313Z,1.60
2023-01-02T08:00:27.041Z,2.58
2023-01-02T08:02:55.275Z,1.45
2023-01-02T08:05:22.736Z,1.70
2023-01-02T08:07:49.479Z,1.92
2023-01-02T08:10:16.357Z,1.70
2023-01-02T08:12:43.150Z,1.63
2023-01-02T08:15:10.213Z,1.60
2023-01-02T08:17:37.085Z,2.05
2023-01-02T08:20:08.012Z,1.80
2023-01-02T08:22:35.241Z,1.73
2023-01-02T08:25:02.155Z,2.95
2023-01-02T08:27:28.903Z,1.75
2023-01-02T08:29:55.682Z,1.98
2023-01-02T08:32:22.356Z,1.88
2023-01-02T08:34:49.261Z,1.70
2023-01-02T08:37:16.013Z,1.92
2023-01-02T08:39:42.737Z,2.13
2023-01-02T08:42:09.947Z,2.08
2023-01-02T08:44:38.314Z,1.92
2023-01-02T08:47:05.667Z,2.03
2023-01-02T08:49:32.450Z,1.65
2023-01-02T08:51:59.196Z,1.52
2023-01-02T08:54:26.032Z,1.45
2023-01-02T08:56:52.921Z,1.58
2023-01-02T08:59:19.824Z,2.42
2023-01-02T09:01:46.622Z,1.65
2023-01-02T09:04:13.850Z,1.40
2023-01-02T09:06:41.532Z,1.23
2023-01-02T09:09:11.952Z,1.80
2023-01-02T09:11:52.386Z,1.90
2023-01-02T09:14:20.786Z,1.50
2023-01-02T09:16:47.868Z,1.25
2023-01-02T09:19:14.782Z,1.17
2023-01-02T09:21:41.508Z,2.83
2023-01-02T09:24:08.622Z,1.80
2023-01-02T09:26:35.502Z,1.75
2023-01-02T09:29:02.356Z,1.48
2023-01-02T09:31:29.147Z,1.45
2023-01-02T09:33:55.922Z,1.30
2023-01-02T09:36:23.236Z,1.50
2023-01-02T09:38:58.091Z,1.88
2023-01-02T09:41:41.620Z,1.80
2023-01-02T09:44:22.381Z,1.55
2023-01-02T09:47:00.599Z,1.73
2023-01-02T09:49:52.025Z,1.48
2023-01-02T09:52:35.639Z,1.40
2023-01-02T09:55:02.832Z,1.65
2023-01-02T09:57:29.621Z,1.60
2023-01-02T10:00:26.202Z,1.40
2023-01-02T10:03:16.374Z,1.30
2023-01-02T10:05:46.233Z,1.40
2023-01-02T10:08:35.874Z,1.70
2023-01-02T10:11:17.916Z,1.40
2023-01-02T10:14:18.126Z,1.20
2023-01-02T10:16:39.452Z,1.95
2023-01-02T10:19:11.009Z,1.38
2023-01-02T10:21:37.831Z,2.28
2023-01-02T10:24:08.977Z,1.85
2023-01-02T10:26:41.800Z,2.70
2023-01-02T10:29:31.215Z,2.03
2023-01-02T10:32:01.030Z,1.88
2023-01-02T10:35:00.838Z,1.50
2023-01-02T10:37:27.951Z,1.70
2023-01-02T10:39:56.590Z,2.00
2023-01-02T10:42:23.353Z,1.88
2023-01-02T10:44:50.099Z,1.67
2023-01-02T10:47:23.948Z,1.50
2023-01-02T10:49:51.958Z,1.40
2023-01-02T10:52:20.368Z,1.52
2023-01-02T10:54:56.703Z,1.70
2023-01-02T10:57:36.527Z,1.60
2023-01-02T11:00:04.922Z,2.08
2023-01-02T11:02:41.131Z,1.80
2023-01-02T11:05:18.240Z,1.45
2023-01-02T11:07:48.500Z,1.70
2023-01-02T11:10:32.872Z,1.85
2023-01-02T11:13:03.943Z,1.85
2023-01-02T11:15:34.763Z,1.55
2023-01-02T11:18:02.958Z,2.00
2023-01-02T11:20:32.620Z,1.90
2023-01-02T11:23:01.599Z,2.20
2023-01-02T11:25:49.451Z,1.35
2023-01-02T11:28:19.279Z,2.08
2023-01-02T11:30:47.865Z,1.80
2023-01-02T11:33:14.553Z,1.30
2023-01-02T11:36:10.575Z,1.50
2023-01-02T11:38:51.358Z,1.50
2023-01-02T11:41:49.502Z,1.38
2023-01-02T11:44:26.967Z,1.38
2023-01-02T11:46:53.785Z,2.08
2023-01-02T11:49:22.502Z,2.00
2023-01-02T11:52:00.494Z,1.70
2023-01-02T11:54:38.901Z,2.00
2023-01-02T11:57:07.671Z,1.70
2023-01-02T11:59:40.585Z,2.03
2023-01-02T12:04:53.008Z,2.13
2023-01-02T12:07:30.425Z,1.80
2023-01-02T12:09:57.168Z,1.80
2023-01-02T12:12:33.468Z,1.58
2023-01-02T12:15:29.496Z,1.98
2023-01-02T12:18:05.747Z,2.20
2023-01-02T12:20:50.848Z,1.35
2023-01-02T12:23:39.031Z,1.98
2023-01-02T12:26:21.951Z,1.30
2023-01-02T12:28:48.647Z,2.03
2023-01-02T12:31:45.203Z,1.17
2023-01-02T12:34:30.116Z,1.73
2023-01-02T12:37:21.916Z,1.15
2023-01-02T12:39:50.309Z,1.50
2023-01-02T12:42:47.595Z,1.30
2023-01-02T12:45:51.707Z,1.30
2023-01-02T12:48:33.802Z,2.03
2023-01-02T12:51:13.110Z,2.72
2023-01-02T12:54:19.050Z,2.00
2023-01-02T12:57:18.360Z,3.08
2023-01-02T13:00:16.724Z,2.95
2023-01-02T13:03:22.655Z,2.65
2023-01-02T13:05:55.559Z,1.63
2023-01-02T13:08:26.450Z,1.55
2023-01-02T13:10:53.118Z,2.10
2023-01-02T13:13:19.961Z,2.00
2023-01-02T13:15:49.463Z,1.60
2023-01-02T13:18:21.746Z,2.22
2023-01-02T13:20:55.059Z,1.90
2023-01-02T13:23:44.077Z,2.10
2023-01-02T13:26:13.180Z,2.63
2023-01-02T13:28:44.368Z,2.00
2023-01-02T13:31:44.815Z,2.28
2023-01-02T13:33:58.459Z,2.05
2023-01-02T13:36:47.559Z,2.03
2023-01-02T13:39:21.988Z,2.03
2023-01-02T13:42:19.493Z,1.65
2023-01-02T13:44:51.366Z,2.10
2023-01-02T13:47:33.738Z,1.40
2023-01-02T13:53:12.188Z,2.95
2023-01-02T13:55:41.991Z,3.45
2023-01-02T13:58:23.300Z,3.53
2023-01-02T14:00:55.097Z,3.15
2023-01-02T14:03:25.691Z,2.35
2023-01-02T14:06:01.475Z,2.50
2023-01-02T14:08:38.505Z,2.20
2023-01-02T14:11:15.598Z,2.03
2023-01-02T14:13:46.425Z,2.08
2023-01-02T14:16:16.209Z,2.35
2023-01-02T14:18:46.616Z,1.83
2023-01-02T14:21:20.817Z,2.17
2023-01-02T14:24:16.367Z,1.90
2023-01-02T14:26:36.931Z,1.88
2023-01-02T14:29:12.196Z,1.80
2023-01-02T14:31:38.945Z,2.20
2023-01-02T14:34:05.765Z,2.22
2023-01-02T14:36:46.609Z,1.92
2023-01-02T14:39:39.661Z,2.10
2023-01-02T14:42:35.796Z,2.22
2023-01-02T14:45:05.866Z,1.80
2023-01-02T14:47:53.680Z,2.60
2023-01-02T14:50:24.505Z,2.05
2023-01-02T14:53:09.996Z,2.30
2023-01-02T14:55:42.372Z,2.13
2023-01-02T14:58:27.983Z,2.42
2023-01-02T15:00:59.083Z,3.05
2023-01-02T15:03:41.632Z,2.47
2023-01-02T15:06:12.813Z,2.55
2023-01-02T15:08:49.362Z,2.42
2023-01-02T15:11:43.607Z,3.00
2023-01-02T15:14:17.751Z,2.90
2023-01-02T15:16:49.590Z,2.80
2023-01-02T15:19:19.557Z,2.97
2023-01-02T15:21:47.105Z,3.75
2023-01-02T15:24:34.292Z,3.22
2023-01-02T15:27:21.475Z,3.63
2023-01-02T15:29:49.567Z,2.30
2023-01-02T15:32:23.786Z,2.17
2023-01-02T15:34:51.141Z,3.38
2023-01-02T15:37:19.738Z,2.20
2023-01-02T15:39:53.118Z,1.75
2023-01-02T15:42:44.256Z,1.63
2023-01-02T15:45:13.915Z,1.55
2023-01-02T15:47:50.966Z,2.65
2023-01-02T15:50:24.701Z,1.50
2023-01-02T15:53:30.944Z,2.13
2023-01-02T15:55:58.349Z,1.42
2023-01-02T15:58:33.156Z,1.63
2023-01-02T16:01:20.339Z,1.90
2023-01-02T16:04:00.396Z,1.52
2023-01-02T16:06:45.358Z,2.15
2023-01-02T16:09:30.467Z,1.52
2023-01-02T16:12:01.686Z,1.60
2023-01-02T16:14:37.526Z,2.17
2023-01-02T16:17:14.655Z,2.33
2023-01-02T16:19:57.926Z,3.20
2023-01-02T16:22:50.643Z,3.35
2023-01-02T16:25:32.143Z,2.15
2023-01-02T16:27:59.009Z,2.30
2023-01-02T16:30:25.712Z,2.80
2023-01-02T16:32:52.583Z,2.60
2023-01-02T16:35:28.636Z,2.33
2023-01-02T16:37:57.381Z,2.60
2023-01-02T16:41:01.733Z,2.47
2023-01-02T16:43:12.106Z,2.15
2023-01-02T16:45:39.389Z,2.00
2023-01-02T16:48:06.740Z,2.45
2023-01-02T16:50:34.834Z,1.88
2023-01-02T16:53:05.351Z,2.08
2023-01-02T16:55:32.181Z,2.20
2023-01-02T16:57:59.472Z,2.40
2023-01-02T17:00:26.314Z,2.38
2023-01-02T17:02:53.434Z,2.35
2023-01-02T17:05:37.567Z,2.50
2023-01-02T17:08:04.846Z,2.30
2023-01-02T17:10:31.962Z,2.15
2023-01-02T17:12:59.100Z,2.42
2023-01-02T17:15:25.996Z,2.60
2023-01-02T17:17:52.641Z,2.58
2023-01-02T17:20:19.627Z,2.80
2023-01-02T17:22:46.295Z,3.03
2023-01-02T17:25:14.641Z,2.63
2023-01-02T17:27:43.125Z,1.90
2023-01-02T17:30:11.833Z,2.78
2023-01-02T17:32:40.006Z,2.75
2023-01-02T17:35:07.200Z,2.00
2023-01-02T17:37:34.149Z,2.13
2023-01-02T17:40:00.958Z,2.33
2023-01-02T17:42:28.008Z,3.00
2023-01-02T17:44:54.759Z,3.70
2023-01-02T17:47:58.335Z,2.05
2023-01-02T17:50:08.659Z,1.95
2023-01-02T17:52:36.227Z,2.42
2023-01-02T17:55:13.941Z,2.45
2023-01-02T17:57:41.259Z,1.90
2023-01-02T18:00:11.145Z,2.30
2023-01-02T18:02:38.188Z,1.98
2023-01-02T18:05:05.603Z,2.63
2023-01-02T18:07:32.355Z,2.20
2023-01-02T18:10:08.735Z,2.50
2023-01-02T18:12:38.028Z,2.45
2023-01-02T18:15:11.299Z,1.80
2023-01-02T18:17:37.990Z,1.25
2023-01-02T18:20:10.594Z,1.92
2023-01-02T18:22:41.096Z,1.15
2023-01-02T18:25:24.744Z,0.95
2023-01-02T18:27:51.813Z,0.70
2023-01-02T18:30:24.202Z,0.65
2023-01-02T18:32:56.817Z,1.23
2023-01-02T18:35:56.223Z,0.60
2023-01-02T18:38:22.621Z,0.40
2023-01-02T18:40:49.380Z,0.40
2023-01-02T18:43:37.990Z,0.50
2023-01-02T18:46:18.363Z,0.90
2023-01-02T18:48:45.866Z,1.00
2023-01-02T18:51:21.984Z,0.75
2023-01-02T18:53:53.184Z,0.70
2023-01-02T18:56:27.696Z,0.50
2023-01-02T18:59:08.238Z,0.30
2023-01-02T19:01:36.456Z,0.73
2023-01-02T19:04:18.866Z,0.98
2023-01-02T19:06:54.432Z,0.25
2023-01-02T19:09:26.065Z,0.60
2023-01-02T19:12:16.092Z,0.60
2023-01-02T19:14:43.916Z,0.38
2023-01-02T19:17:23.990Z,0.30
2023-01-02T19:19:51.002Z,0.43
2023-01-02T19:22:26.449Z,0.20
2023-01-02T19:24:53.216Z,1.13
2023-01-02T19:27:40.250Z,0.70
2023-01-02T19:30:31.377Z,0.40
2023-01-02T19:32:58.364Z,0.65
2023-01-02T19:35:25.224Z,0.20
2023-01-02T19:37:52.384Z,0.50
2023-01-02T19:40:21.712Z,0.88
2023-01-02T19:42:52.290Z,0.40
2023-01-02T19:45:22.870Z,0.60
2023-01-02T19:47:49.949Z,0.68
2023-01-02T19:50:21.256Z,0.52
2023-01-02T19:52:48.150Z,0.70
2023-01-02T19:55:15.307Z,0.50
2023-01-02T19:57:42.075Z,0.65
2023-01-02T20:00:12.888Z,0.32
2023-01-02T20:02:43.621Z,0.47
2023-01-02T20:05:12.741Z,0.40
2023-01-02T20:07:43.190Z,0.47
2023-01-02T20:10:10.582Z,0.60
2023-01-02T20:12:43.320Z,0.38
2023-01-02T20:15:12.651Z,0.32
2023-01-02T20:17:39.870Z,0.77
2023-01-02T20:20:09.591Z,0.60
2023-01-02T20:22:36.585Z,0.68
2023-01-02T20:25:03.886Z,0.90
2023-01-02T20:27:30.578Z,0.65
2023-01-02T20:29:57.258Z,0.60
2023-01-02T20:32:24.312Z,0.52
2023-01-02T20:34:51.544Z,0.70
2023-01-02T20:37:22.009Z,1.02
2023-01-02T20:39:50.452Z,1.55
2023-01-02T20:42:17.329Z,0.70
2023-01-02T20:44:44.227Z,0.70
2023-01-02T20:47:11.996Z,0.95
2023-01-02T20:49:39.977Z,0.73
2023-01-02T20:52:08.204Z,0.80
2023-01-02T20:54:35.189Z,0.68
2023-01-02T20:57:02.316Z,0.82
2023-01-02T20:59:29.226Z,0.82
2023-01-02T21:01:57.019Z,0.90
2023-01-02T21:04:29.286Z,1.00
2023-01-02T21:06:59.253Z,1.80
2023-01-02T21:09:25.986Z,1.30
2023-01-02T21:11:53.147Z,1.63
2023-01-02T21:14:19.815Z,1.73
2023-01-02T21:16:46.688Z,1.92
2023-01-02T21:19:15.196Z,1.77
2023-01-02T21:21:42.096Z,1.65
2023-01-02T21:24:08.815Z,1.70
2023-01-02T21:26:35.526Z,1.40
2023-01-02T21:29:03.307Z,1.20
2023-01-02T21:31:30.110Z,0.93
2023-01-02T21:33:56.949Z,1.48
2023-01-02T21:36:23.782Z,1.00
2023-01-02T21:38:50.485Z,1.65
2023-01-02T21:41:35.864Z,2.08
2023-01-02T21:44:02.634Z,1.65
2023-01-02T21:46:29.421Z,2.47
2023-01-02T21:48:56.462Z,1.80
2023-01-02T21:51:27.661Z,1.58
2023-01-02T21:53:57.576Z,1.67
2023-01-02T21:56:24.252Z,2.00
2023-01-02T21:58:51.089Z,1.80
2023-01-02T22:01:18.044Z,1.63
2023-01-02T22:03:45.132Z,1.55
2023-01-02T22:06:11.855Z,1.38
2023-01-02T22:08:38.680Z,1.83
2023-01-02T22:11:24.120Z,1.20
2023-01-02T22:13:51.041Z,1.45
2023-01-02T22:16:18.995Z,1.77
2023-01-02T22:18:46.353Z,1.40
2023-01-02T22:21:13.056Z,1.60
2023-01-02T22:23:39.697Z,1.48
2023-01-02T22:26:06.637Z,1.30
2023-01-02T22:28:33.401Z,1.35
2023-01-02T22:31:00.172Z,1.70
2023-01-02T22:33:26.927Z,1.50
2023-01-02T22:35:53.648Z,1.35
2023-01-02T22:38:20.462Z,1.50
2023-01-02T22:40:47.805Z,1.55
2023-01-02T22:43:18.049Z,1.00
2023-01-02T22:48:35.307Z,1.55
2023-01-02T22:51:02.121Z,1.00
2023-01-02T22:53:32.194Z,0.93
2023-01-02T22:56:00.116Z,1.17
2023-01-02T22:58:26.873Z,0.98
2023-01-02T23:01:06.441Z,1.13
2023-01-02T23:03:42.956Z,0.88
2023-01-02T23:06:09.845Z,0.95
2023-01-02T23:08:36.980Z,1.00
2023-01-02T23:11:04.453Z,1.65
2023-01-02T23:13:32.873Z,0.95
2023-01-02T23:16:18.196Z,1.30
2023-01-02T23:19:03.593Z,1.50
2023-01-02T23:21:31.826Z,1.40
2023-01-02T23:23:58.727Z,1.50
2023-01-02T23:26:29.118Z,1.30
2023-01-02T23:29:06.546Z,1.20
2023-01-02T23:31:35.047Z,1.15
2023-01-02T23:34:01.735Z,1.48
2023-01-02T23:36:28.529Z,1.00
2023-01-02T23:38:55.223Z,1.08
2023-01-02T23:41:21.930Z,1.00
2023-01-02T23:43:48.875Z,1.17
2023-01-02T23:46:15.651Z,0.98
2023-01-02T23:48:42.317Z,0.80
2023-01-02T23:51:09.075Z,1.10
2023-01-02T23:53:35.803Z,1.00
2023-01-02T23:56:02.654Z,1.00
2023-01-02T23:58:29.420Z,0.90
